Time;durP1;ratioP1;P1;durP2;ratioP2;P2;SDS_P1;SDS_P2;PMS_P1;PMS_P2;Temp;Humidity;BMP_temperature;BMP_pressure;BME280_temperature;BME280_humidity;BME280_pressure;Samples;Min_cycle;Max_cycle;Signal;HPM_P1;HPM_P2
2022/09/15 00:00:28;;;;;;;;;;;18.20;99.90;;;;;;4982437;28;19969;-84
2022/09/15 00:02:55;;;;;;;;;;;18.10;99.90;;;;;;4984229;28;20496;-84
2022/09/15 00:05:22;;;;;;;;;;;18.10;99.90;;;;;;4982497;28;20343;-84
2022/09/15 00:07:50;;;;;;;;;;;18.10;99.90;;;;;;4982829;28;20171;-84
2022/09/15 00:10:18;;;;;;;;;;;18.10;99.90;;;;;;4984583;28;20400;-84
2022/09/15 00:12:47;;;;;;;;;;;18.10;99.90;;;;;;4983260;28;19996;-84
2022/09/15 00:15:15;;;;;;;;;;;18.10;99.90;;;;;;4982296;28;19992;-84
2022/09/15 00:17:43;;;;;;;;;;;18.10;99.90;;;;;;4983942;28;19984;-85
2022/09/15 00:20:10;;;;;;;;;;;18.10;99.90;;;;;;4971094;28;19930;-84
2022/09/15 00:22:39;;;;;;;;;;;18.10;99.90;;;;;;4971917;28;20472;-84
2022/09/15 00:25:07;;;;;;;;;;;18.10;99.90;;;;;;4980908;28;19937;-84
2022/09/15 00:27:34;;;;;;;;;;;18.10;99.90;;;;;;4981915;28;20376;-84
2022/09/15 00:30:03;;;;;;;;;;;18.10;99.90;;;;;;4984664;28;19925;-84
2022/09/15 00:32:32;;;;;;;;;;;18.10;99.90;;;;;;4980152;28;20117;-84
2022/09/15 00:35:00;;;;;;;;;;;18.10;99.90;;;;;;4983330;28;21780;-84
2022/09/15 00:37:27;;;;;;;;;;;18.10;99.90;;;;;;4964367;28;19925;-84
2022/09/15 00:39:55;;;;;;;;;;;18.10;99.90;;;;;;4982790;28;19961;-84
2022/09/15 00:42:23;;;;;;;;;;;18.10;99.90;;;;;;4962096;28;19934;-84
2022/09/15 00:44:55;;;;;;;;;;;18.10;99.90;;;;;;4987394;28;20013;-84
2022/09/15 00:47:25;;;;;;;;;;;18.10;99.90;;;;;;4962185;28;19949;-84
2022/09/15 00:49:55;;;;;;;;;;;18.10;99.90;;;;;;4983686;28;19933;-84
2022/09/15 00:52:24;;;;;;;;;;;18.10;99.90;;;;;;4977800;28;19933;-85
2022/09/15 00:54:57;;;;;;;;;;;18.10;99.90;;;;;;4982993;28;19926;-84
2022/09/15 00:57:28;;;;;;;;;;;18.10;99.90;;;;;;4978999;28;20024;-84
2022/09/15 00:59:56;;;;;;;;;;;18.10;99.90;;;;;;4982759;28;19984;-84
2022/09/15 01:02:29;;;;;;;;;;;18.10;99.90;;;;;;4963027;28;19926;-83
2022/09/15 01:04:58;;;;;;;;;;;18.10;99.90;;;;;;4981224;28;19930;-84
2022/09/15 01:07:28;;;;;;;;;;;18.00;99.90;;;;;;4980059;28;19930;-84
2022/09/15 01:09:57;;;;;;;;;;;18.00;99.90;;;;;;4981865;28;19929;-83
2022/09/15 01:12:25;;;;;;;;;;;18.00;99.90;;;;;;4981816;28;20372;-84
2022/09/15 01:14:51;;;;;;;;;;;18.00;99.90;;;;;;4979741;28;19981;-85
2022/09/15 01:17:23;;;;;;;;;;;18.00;99.90;;;;;;4980854;28;19926;-85
2022/09/15 01:20:03;;;;;;;;;;;18.00;99.90;;;;;;4981816;28;19996;-85
2022/09/15 01:22:38;;;;;;;;;;;18.00;99.90;;;;;;4981296;28;20033;-83
2022/09/15 01:25:08;;;;;;;;;;;18.00;99.90;;;;;;4979216;28;19948;-85
2022/09/15 01:27:44;;;;;;;;;;;18.00;99.90;;;;;;4982602;28;20020;-84
2022/09/15 01:30:16;;;;;;;;;;;18.00;99.90;;;;;;4985232;28;20483;-85
2022/09/15 01:33:04;;;;;;;;;;;18.00;99.90;;;;;;4966875;28;19934;-86
2022/09/15 01:35:55;;;;;;;;;;;17.90;99.90;;;;;;4983330;28;19929;-85
2022/09/15 01:38:31;;;;;;;;;;;18.00;99.90;;;;;;4947525;28;20355;-86
2022/09/15 01:41:05;;;;;;;;;;;17.90;99.90;;;;;;4981599;28;19926;-86
2022/09/15 01:43:34;;;;;;;;;;;17.90;99.90;;;;;;4979567;28;19925;-85
2022/09/15 01:46:03;;;;;;;;;;;18.00;99.90;;;;;;4983791;28;19929;-86
2022/09/15 01:48:32;;;;;;;;;;;17.90;99.90;;;;;;4984335;28;20336;-86
2022/09/15 01:51:01;;;;;;;;;;;17.90;99.90;;;;;;4984095;28;19937;-86
2022/09/15 01:53:29;;;;;;;;;;;17.90;99.90;;;;;;4983451;28;20523;-85
2022/09/15 01:55:59;;;;;;;;;;;17.90;99.90;;;;;;4985559;28;20415;-85
2022/09/15 01:58:30;;;;;;;;;;;17.90;99.90;;;;;;4982076;28;20542;-86
2022/09/15 02:01:00;;;;;;;;;;;17.90;99.90;;;;;;4980831;28;19940;-85
2022/09/15 02:03:32;;;;;;;;;;;17.90;99.90;;;;;;4966419;28;19929;-86
2022/09/15 02:06:02;;;;;;;;;;;17.90;99.90;;;;;;4986065;28;20024;-86
2022/09/15 02:08:33;;;;;;;;;;;17.90;99.90;;;;;;4970706;28;20273;-84
2022/09/15 02:11:04;;;;;;;;;;;17.90;99.90;;;;;;4985496;28;19996;-85
2022/09/15 02:13:37;;;;;;;;;;;17.90;99.90;;;;;;4982370;28;19936;-86
2022/09/15 02:16:09;;;;;;;;;;;17.90;99.90;;;;;;4964548;28;20008;-85
2022/09/15 02:18:42;;;;;;;;;;;17.80;99.90;;;;;;4984681;28;20045;-85
2022/09/15 02:21:14;;;;;;;;;;;17.80;99.90;;;;;;4982742;28;19926;-86
2022/09/15 02:23:46;;;;;;;;;;;17.90;99.90;;;;;;4984442;28;19944;-86
2022/09/15 02:26:18;;;;;;;;;;;17.90;99.90;;;;;;4983241;28;20032;-86
2022/09/15 02:28:47;;;;;;;;;;;17.80;99.90;;;;;;4983824;28;19930;-85
2022/09/15 02:31:16;;;;;;;;;;;17.90;99.90;;;;;;4981427;28;20016;-86
2022/09/15 02:33:49;;;;;;;;;;;17.80;99.90;;;;;;4987662;28;19933;-86
2022/09/15 02:36:18;;;;;;;;;;;17.80;99.90;;;;;;4985842;28;19926;-86
2022/09/15 02:38:49;;;;;;;;;;;17.80;99.90;;;;;;4982928;28;19941;-86
2022/09/15 02:41:16;;;;;;;;;;;17.80;99.90;;;;;;4983152;28;20348;-86
2022/09/15 02:43:46;;;;;;;;;;;17.80;99.90;;;;;;4963172;28;19936;-87
2022/09/15 02:46:14;;;;;;;;;;;17.80;99.90;;;;;;4983363;28;20369;-86
2022/09/15 02:48:41;;;;;;;;;;;17.80;99.90;;;;;;4981898;28;19941;-86
2022/09/15 02:51:11;;;;;;;;;;;17.80;99.90;;;;;;4983624;28;20025;-86
2022/09/15 02:53:38;;;;;;;;;;;17.70;99.90;;;;;;4983502;28;19969;-86
2022/09/15 02:56:06;;;;;;;;;;;17.70;99.90;;;;;;4983170;28;20484;-86
2022/09/15 02:58:36;;;;;;;;;;;17.70;99.90;;;;;;4982024;28;20017;-86
2022/09/15 03:01:06;;;;;;;;;;;17.70;99.90;;;;;;4984113;28;19937;-85
2022/09/15 03:03:33;;;;;;;;;;;17.70;99.90;;;;;;4981781;28;19926;-86
2022/09/15 03:08:50;;;;;;;;;;;17.70;99.90;;;;;;4965082;28;20487;-86
2022/09/15 03:11:19;;;;;;;;;;;17.70;99.90;;;;;;4989585;28;20265;-86
2022/09/15 03:13:47;;;;;;;;;;;17.70;99.90;;;;;;4978048;28;19933;-86
2022/09/15 03:16:15;;;;;;;;;;;17.70;99.90;;;;;;4965186;28;20405;-86
2022/09/15 03:18:42;;;;;;;;;;;17.60;99.90;;;;;;4962618;28;19933;-86
2022/09/15 03:21:11;;;;;;;;;;;17.60;99.90;;;;;;4987132;28;19968;-85
2022/09/15 03:23:37;;;;;;;;;;;17.60;99.90;;;;;;4978334;28;19926;-86
2022/09/15 03:28:48;;;;;;;;;;;17.60;99.90;;;;;;4965066;28;20440;-86
2022/09/15 03:31:15;;;;;;;;;;;17.60;99.90;;;;;;4966229;28;19926;-87
2022/09/15 03:33:42;;;;;;;;;;;17.60;99.90;;;;;;4977410;28;19961;-86
2022/09/15 03:36:09;;;;;;;;;;;17.60;99.90;;;;;;4982128;28;19930;-86
2022/09/15 03:38:36;;;;;;;;;;;17.60;99.90;;;;;;4979267;28;19934;-85
2022/09/15 03:41:04;;;;;;;;;;;17.60;99.90;;;;;;4981927;28;19933;-86
2022/09/15 03:43:34;;;;;;;;;;;17.60;99.90;;;;;;4974768;28;20326;-85
2022/09/15 03:46:01;;;;;;;;;;;17.60;99.90;;;;;;4977152;28;20424;-86
2022/09/15 03:48:30;;;;;;;;;;;17.50;99.90;;;;;;4963441;28;19926;-85
2022/09/15 03:50:57;;;;;;;;;;;17.50;99.90;;;;;;4961001;28;20098;-85
2022/09/15 03:53:25;;;;;;;;;;;17.50;99.90;;;;;;4980426;28;19932;-84
2022/09/15 03:55:52;;;;;;;;;;;17.50;99.90;;;;;;4963685;28;20032;-84
2022/09/15 03:58:20;;;;;;;;;;;17.50;99.90;;;;;;4980716;28;20021;-84
2022/09/15 04:00:48;;;;;;;;;;;17.50;99.90;;;;;;4975814;28;19941;-84
2022/09/15 04:03:15;;;;;;;;;;;17.50;99.90;;;;;;4960147;28;19933;-83
2022/09/15 04:05:42;;;;;;;;;;;17.50;99.90;;;;;;4969929;28;19953;-86
2022/09/15 04:08:11;;;;;;;;;;;17.50;99.90;;;;;;4980553;28;19933;-86
2022/09/15 04:10:38;;;;;;;;;;;17.50;99.90;;;;;;4964557;28;19932;-87
2022/09/15 04:13:05;;;;;;;;;;;17.50;99.90;;;;;;4986334;28;19926;-86
2022/09/15 04:15:35;;;;;;;;;;;17.50;99.90;;;;;;4983709;28;20615;-87
2022/09/15 04:18:03;;;;;;;;;;;17.50;99.90;;;;;;4988568;28;19933;-86
2022/09/15 04:20:30;;;;;;;;;;;17.50;99.90;;;;;;4972507;28;20116;-85
2022/09/15 04:22:57;;;;;;;;;;;17.50;99.90;;;;;;4991272;28;20004;-87
2022/09/15 04:25:24;;;;;;;;;;;17.40;99.90;;;;;;4967587;28;20024;-85
2022/09/15 04:27:51;;;;;;;;;;;17.50;99.90;;;;;;4989072;28;19926;-86
2022/09/15 04:30:18;;;;;;;;;;;17.40;99.90;;;;;;4975770;28;19938;-86
2022/09/15 04:32:45;;;;;;;;;;;17.40;99.90;;;;;;4988948;28;19972;-86
2022/09/15 04:35:13;;;;;;;;;;;17.40;99.90;;;;;;4964880;28;19940;-86
2022/09/15 04:37:40;;;;;;;;;;;17.40;99.90;;;;;;4987852;28;19973;-86
2022/09/15 04:40:07;;;;;;;;;;;17.40;99.90;;;;;;4987858;28;20588;-87
2022/09/15 04:42:34;;;;;;;;;;;17.40;99.90;;;;;;4970908;28;19945;-84
2022/09/15 04:45:01;;;;;;;;;;;17.40;99.90;;;;;;4984828;28;19926;-86
2022/09/15 04:47:28;;;;;;;;;;;17.40;99.90;;;;;;4985817;28;19926;-88
2022/09/15 04:49:55;;;;;;;;;;;17.40;99.90;;;;;;4971688;28;19958;-85
2022/09/15 04:52:23;;;;;;;;;;;17.40;99.90;;;;;;4988937;28;20311;-84
2022/09/15 04:54:50;;;;;;;;;;;17.30;99.90;;;;;;5004129;22;19914;-77
2022/09/15 04:57:16;;;;;;;;;;;17.40;99.90;;;;;;4998338;28;20385;-77
2022/09/15 04:59:43;;;;;;;;;;;17.40;99.90;;;;;;4999180;28;21094;-78
2022/09/15 05:02:10;;;;;;;;;;;17.40;99.90;;;;;;4997260;28;19972;-78
2022/09/15 05:04:37;;;;;;;;;;;17.40;99.90;;;;;;5008225;28;19972;-77
2022/09/15 05:07:03;;;;;;;;;;;17.40;99.90;;;;;;5002607;28;19933;-76
2022/09/15 05:09:32;;;;;;;;;;;17.40;99.90;;;;;;5007824;28;19981;-77
2022/09/15 05:11:58;;;;;;;;;;;17.30;99.90;;;;;;5004020;28;19929;-76
2022/09/15 05:14:25;;;;;;;;;;;17.40;99.90;;;;;;5000026;28;20020;-77
2022/09/15 05:16:52;;;;;;;;;;;17.30;99.90;;;;;;5005516;28;20031;-77
2022/09/15 05:19:19;;;;;;;;;;;17.30;99.90;;;;;;5002917;28;20581;-77
2022/09/15 05:21:45;;;;;;;;;;;17.30;99.90;;;;;;5000291;28;20013;-76
2022/09/15 05:24:12;;;;;;;;;;;17.30;99.90;;;;;;5004074;28;20044;-78
2022/09/15 05:26:40;;;;;;;;;;;17.30;99.90;;;;;;5002998;28;20369;-77
2022/09/15 05:29:07;;;;;;;;;;;17.30;99.90;;;;;;5003543;28;19932;-76
2022/09/15 05:31:34;;;;;;;;;;;17.30;99.90;;;;;;5001781;28;19925;-79
2022/09/15 05:34:04;;;;;;;;;;;17.30;99.90;;;;;;5007971;28;20377;-77
2022/09/15 05:36:32;;;;;;;;;;;17.30;99.90;;;;;;5011654;28;19926;-77
2022/09/15 05:39:02;;;;;;;;;;;17.30;99.90;;;;;;5018061;28;20025;-80
2022/09/15 05:41:29;;;;;;;;;;;17.30;99.90;;;;;;5020208;28;20342;-78
2022/09/15 05:43:58;;;;;;;;;;;17.30;99.90;;;;;;5013650;28;19988;-76
2022/09/15 05:46:26;;;;;;;;;;;17.30;99.90;;;;;;5010880;28;20423;-76
2022/09/15 05:48:54;;;;;;;;;;;17.30;99.90;;;;;;5015106;28;20315;-77
2022/09/15 05:51:21;;;;;;;;;;;17.30;99.90;;;;;;5010209;28;19975;-77
2022/09/15 05:53:55;;;;;;;;;;;17.30;99.90;;;;;;5006012;28;19949;-76
2022/09/15 05:56:23;;;;;;;;;;;17.20;99.90;;;;;;5013642;28;20012;-76
2022/09/15 05:58:52;;;;;;;;;;;17.20;99.90;;;;;;5005910;28;19933;-76
2022/09/15 06:01:21;;;;;;;;;;;17.20;99.90;;;;;;5008995;28;20274;-75
2022/09/15 06:03:48;;;;;;;;;;;17.20;99.90;;;;;;5008642;28;19925;-77
2022/09/15 06:06:18;;;;;;;;;;;17.20;99.90;;;;;;5016714;28;19948;-77
2022/09/15 06:08:47;;;;;;;;;;;17.20;99.90;;;;;;4998511;28;19933;-77
2022/09/15 06:13:58;;;;;;;;;;;17.20;99.90;;;;;;5011809;28;19929;-76
2022/09/15 06:16:27;;;;;;;;;;;17.20;99.90;;;;;;5009034;28;20388;-78
2022/09/15 06:18:54;;;;;;;;;;;17.20;99.90;;;;;;5007209;28;20392;-76
2022/09/15 06:21:21;;;;;;;;;;;17.20;99.90;;;;;;5007185;28;20409;-76
2022/09/15 06:23:52;;;;;;;;;;;17.20;99.90;;;;;;5010441;28;19926;-77
2022/09/15 06:26:19;;;;;;;;;;;17.20;99.90;;;;;;5009735;28;19925;-76
2022/09/15 06:28:48;;;;;;;;;;;17.20;99.90;;;;;;5007961;28;19925;-77
2022/09/15 06:31:15;;;;;;;;;;;17.20;99.90;;;;;;5007529;28;19932;-78
2022/09/15 06:33:45;;;;;;;;;;;17.20;99.90;;;;;;5001909;28;20522;-76
2022/09/15 06:36:16;;;;;;;;;;;17.20;99.90;;;;;;5015153;28;19983;-76
2022/09/15 06:38:46;;;;;;;;;;;17.20;99.90;;;;;;5007729;28;19926;-78
2022/09/15 06:41:12;;;;;;;;;;;17.20;99.90;;;;;;5007394;28;20008;-76
2022/09/15 06:43:40;;;;;;;;;;;17.20;99.90;;;;;;5017518;28;20376;-75
2022/09/15 06:46:11;;;;;;;;;;;17.20;99.90;;;;;;5004316;28;19929;-77
2022/09/15 06:48:38;;;;;;;;;;;17.20;99.90;;;;;;5011084;28;20016;-80
2022/09/15 06:51:08;;;;;;;;;;;17.10;99.90;;;;;;5006005;28;20303;-77
2022/09/15 06:53:38;;;;;;;;;;;17.10;99.90;;;;;;5024735;28;19972;-77
2022/09/15 06:56:07;;;;;;;;;;;17.10;99.90;;;;;;5017373;28;19931;-77
2022/09/15 06:58:36;;;;;;;;;;;17.10;99.90;;;;;;5006140;28;19965;-76
2022/09/15 07:01:04;;;;;;;;;;;17.10;99.90;;;;;;5007657;28;19940;-76
2022/09/15 07:03:31;;;;;;;;;;;17.10;99.90;;;;;;5006837;28;19925;-76
2022/09/15 07:05:58;;;;;;;;;;;17.10;99.90;;;;;;5009579;28;19969;-76
2022/09/15 07:08:26;;;;;;;;;;;17.10;99.90;;;;;;5012791;28;19973;-77
2022/09/15 07:10:53;;;;;;;;;;;17.10;99.90;;;;;;5008610;28;20323;-77
2022/09/15 07:13:20;;;;;;;;;;;17.10;99.90;;;;;;5002627;28;19930;-78
2022/09/15 07:15:51;;;;;;;;;;;17.10;99.90;;;;;;5017044;28;20438;-77
2022/09/15 07:18:17;;;;;;;;;;;17.10;99.90;;;;;;5017027;28;19925;-78
2022/09/15 07:20:44;;;;;;;;;;;17.10;99.90;;;;;;5014194;28;19929;-78
2022/09/15 07:23:11;;;;;;;;;;;17.10;99.90;;;;;;5013033;28;20009;-78
2022/09/15 07:25:43;;;;;;;;;;;17.10;99.90;;;;;;5012039;28;20433;-76
2022/09/15 07:28:10;;;;;;;;;;;17.10;99.90;;;;;;5011958;28;20320;-78
2022/09/15 07:30:38;;;;;;;;;;;17.10;99.90;;;;;;5002849;28;20031;-77
2022/09/15 07:33:05;;;;;;;;;;;17.10;99.90;;;;;;5001069;28;19933;-79
2022/09/15 07:35:32;;;;;;;;;;;17.10;99.90;;;;;;5000606;28;19960;-76
2022/09/15 07:38:00;;;;;;;;;;;17.10;99.90;;;;;;5008573;28;19933;-78
2022/09/15 07:40:30;;;;;;;;;;;17.10;99.90;;;;;;5014796;28;20233;-77
2022/09/15 07:42:58;;;;;;;;;;;17.10;99.90;;;;;;5007023;28;19940;-76
2022/09/15 07:45:26;;;;;;;;;;;17.10;99.90;;;;;;5012008;28;19925;-76
2022/09/15 07:47:52;;;;;;;;;;;17.10;99.90;;;;;;5011869;28;19925;-75
2022/09/15 07:50:19;;;;;;;;;;;17.10;99.90;;;;;;5011413;28;20018;-79
2022/09/15 07:52:46;;;;;;;;;;;17.10;99.90;;;;;;5013939;28;20311;-76
2022/09/15 07:55:13;;;;;;;;;;;17.10;99.90;;;;;;5012810;28;19932;-75
2022/09/15 07:57:40;;;;;;;;;;;17.10;99.90;;;;;;5008154;28;19933;-78
2022/09/15 08:00:09;;;;;;;;;;;17.10;99.90;;;;;;5014024;28;19964;-75
2022/09/15 08:02:39;;;;;;;;;;;17.10;99.90;;;;;;5010253;28;19956;-77
2022/09/15 08:05:06;;;;;;;;;;;17.10;99.90;;;;;;5007220;28;19953;-78
2022/09/15 08:07:33;;;;;;;;;;;17.10;99.90;;;;;;5007955;28;19932;-77
2022/09/15 08:10:00;;;;;;;;;;;17.10;99.90;;;;;;5004721;28;19957;-77
2022/09/15 08:12:29;;;;;;;;;;;17.10;99.90;;;;;;5012770;28;20300;-78
2022/09/15 08:14:56;;;;;;;;;;;17.10;99.90;;;;;;5007921;28;20692;-76
2022/09/15 08:17:24;;;;;;;;;;;17.10;99.90;;;;;;5011058;28;20368;-76
2022/09/15 08:19:51;;;;;;;;;;;17.10;99.90;;;;;;5018416;28;19944;-77
2022/09/15 08:22:18;;;;;;;;;;;17.10;99.90;;;;;;5008238;28;19929;-76
2022/09/15 08:24:45;;;;;;;;;;;17.20;99.90;;;;;;5010611;28;19933;-77
2022/09/15 08:27:11;;;;;;;;;;;17.20;99.90;;;;;;5015107;28;19961;-75
2022/09/15 08:29:38;;;;;;;;;;;17.10;99.90;;;;;;5016710;28;20020;-76
2022/09/15 08:32:05;;;;;;;;;;;17.20;99.90;;;;;;5006033;28;19953;-77
2022/09/15 08:34:33;;;;;;;;;;;17.20;99.90;;;;;;5001830;28;19925;-77
2022/09/15 08:37:00;;;;;;;;;;;17.20;99.90;;;;;;5011242;28;20049;-76
2022/09/15 08:39:27;;;;;;;;;;;17.20;99.90;;;;;;5011380;28;19932;-79
2022/09/15 08:41:54;;;;;;;;;;;17.20;99.90;;;;;;5010718;28;19926;-76
2022/09/15 08:44:26;;;;;;;;;;;17.20;99.90;;;;;;5009673;28;19972;-77
2022/09/15 08:46:56;;;;;;;;;;;17.20;99.90;;;;;;5009934;28;20021;-80
2022/09/15 08:49:24;;;;;;;;;;;17.20;99.90;;;;;;5021312;28;19952;-77
2022/09/15 08:51:53;;;;;;;;;;;17.20;99.90;;;;;;5014646;28;19929;-79
2022/09/15 08:54:21;;;;;;;;;;;17.20;99.90;;;;;;5009656;28;19930;-76
2022/09/15 08:56:48;;;;;;;;;;;17.20;99.90;;;;;;5012827;28;19932;-78
2022/09/15 08:59:15;;;;;;;;;;;17.30;99.90;;;;;;5014462;28;20027;-77
2022/09/15 09:01:57;;;;;;;;;;;17.30;99.90;;;;;;5014727;28;19969;-75
2022/09/15 09:04:32;;;;;;;;;;;17.30;99.90;;;;;;5010443;28;20024;-77
2022/09/15 09:07:04;;;;;;;;;;;17.30;99.90;;;;;;5006132;28;20024;-76
2022/09/15 09:09:34;;;;;;;;;;;17.30;99.90;;;;;;5015557;28;19929;-77
2022/09/15 09:12:19;;;;;;;;;;;17.30;99.90;;;;;;5007585;28;19988;-76
2022/09/15 09:14:51;;;;;;;;;;;17.30;99.90;;;;;;5003872;28;20393;-76
2022/09/15 09:17:24;;;;;;;;;;;17.40;99.90;;;;;;5014553;28;19928;-78
2022/09/15 09:20:15;;;;;;;;;;;17.40;99.90;;;;;;5018862;28;20024;-77
2022/09/15 09:22:45;;;;;;;;;;;17.40;99.90;;;;;;5008549;28;19964;-78
2022/09/15 09:25:13;;;;;;;;;;;17.40;99.90;;;;;;5008365;28;19957;-77
2022/09/15 09:27:40;;;;;;;;;;;17.40;99.90;;;;;;5003171;28;20027;-78
2022/09/15 09:30:13;;;;;;;;;;;17.40;99.90;;;;;;5005022;28;19934;-75
2022/09/15 09:32:44;;;;;;;;;;;17.40;99.90;;;;;;5009366;28;20376;-75
2022/09/15 09:37:38;;;;;;;;;;;17.50;99.90;;;;;;5036390;22;19929;-75
2022/09/15 09:40:11;;;;;;;;;;;17.50;99.90;;;;;;5013777;28;20019;-76
2022/09/15 09:42:39;;;;;;;;;;;17.50;99.90;;;;;;5006674;28;19932;-73
2022/09/15 09:45:06;;;;;;;;;;;17.50;99.90;;;;;;5008590;28;19933;-75
2022/09/15 09:47:34;;;;;;;;;;;17.50;99.90;;;;;;4999632;28;20440;-75
2022/09/15 09:50:01;;;;;;;;;;;17.50;99.90;;;;;;5008690;28;19929;-74
2022/09/15 09:52:32;;;;;;;;;;;17.50;99.90;;;;;;5015718;28;19956;-74
2022/09/15 09:55:00;;;;;;;;;;;17.50;99.90;;;;;;5015355;28;19925;-75
2022/09/15 09:57:29;;;;;;;;;;;17.50;99.90;;;;;;5018510;28;19930;-74
2022/09/15 09:59:56;;;;;;;;;;;17.60;99.90;;;;;;5013540;28;19987;-76
2022/09/15 10:02:23;;;;;;;;;;;17.60;99.90;;;;;;5006262;28;20311;-74
2022/09/15 10:04:51;;;;;;;;;;;17.60;99.90;;;;;;5009260;28;20011;-76
2022/09/15 10:07:19;;;;;;;;;;;17.60;99.90;;;;;;5017140;28;20159;-75
2022/09/15 10:09:51;;;;;;;;;;;17.60;99.90;;;;;;5009159;28;20012;-75
2022/09/15 10:12:23;;;;;;;;;;;17.60;99.90;;;;;;5013001;28;19933;-75
2022/09/15 10:14:53;;;;;;;;;;;17.60;99.90;;;;;;5007032;28;19925;-76
2022/09/15 10:17:20;;;;;;;;;;;17.60;99.90;;;;;;5007174;28;20549;-74
2022/09/15 10:19:48;;;;;;;;;;;17.60;99.90;;;;;;5017054;28;19976;-75
2022/09/15 10:22:26;;;;;;;;;;;17.60;99.90;;;;;;5007389;28;20404;-76
2022/09/15 10:24:53;;;;;;;;;;;17.60;99.90;;;;;;5011185;28;20020;-76
2022/09/15 10:27:25;;;;;;;;;;;17.60;99.90;;;;;;5008931;28;19965;-74
2022/09/15 10:29:53;;;;;;;;;;;17.70;99.90;;;;;;5007763;28;20036;-75
2022/09/15 10:32:25;;;;;;;;;;;17.60;99.90;;;;;;5007802;28;19934;-76
2022/09/15 10:35:00;;;;;;;;;;;17.70;99.90;;;;;;5011541;28;20012;-76
2022/09/15 10:37:28;;;;;;;;;;;17.70;99.90;;;;;;5002155;28;19926;-74
2022/09/15 10:39:56;;;;;;;;;;;17.70;99.90;;;;;;5005279;28;19931;-76
2022/09/15 10:42:34;;;;;;;;;;;17.70;99.90;;;;;;5010780;28;19925;-75
2022/09/15 10:45:11;;;;;;;;;;;17.70;99.90;;;;;;5016497;28;19936;-75
2022/09/15 10:47:46;;;;;;;;;;;17.70;99.90;;;;;;5015533;28;19925;-74
2022/09/15 10:50:15;;;;;;;;;;;17.70;99.90;;;;;;5000449;28;20400;-75
2022/09/15 10:52:50;;;;;;;;;;;17.70;99.90;;;;;;5013245;28;19932;-76
2022/09/15 10:55:20;;;;;;;;;;;17.70;99.90;;;;;;5007151;28;20016;-76
2022/09/15 10:58:02;;;;;;;;;;;17.70;99.90;;;;;;5008727;28;20013;-75
2022/09/15 11:00:33;;;;;;;;;;;17.70;99.90;;;;;;5007932;28;20343;-75
2022/09/15 11:03:24;;;;;;;;;;;17.70;99.90;;;;;;5030939;22;19964;-82
2022/09/15 11:06:00;;;;;;;;;;;17.80;99.90;;;;;;5031558;28;19971;-83
2022/09/15 11:08:37;;;;;;;;;;;17.80;99.90;;;;;;5032525;28;19998;-81
2022/09/15 11:11:07;;;;;;;;;;;17.80;99.90;;;;;;5021548;28;19964;-82
2022/09/15 11:13:37;;;;;;;;;;;17.70;99.90;;;;;;5018372;28;20421;-82
2022/09/15 11:16:18;;;;;;;;;;;17.80;99.90;;;;;;5005520;28;19965;-82
2022/09/15 11:18:54;;;;;;;;;;;17.80;99.90;;;;;;5012989;28;19952;-82
2022/09/15 11:21:25;;;;;;;;;;;17.80;99.90;;;;;;5027908;28;19937;-82
2022/09/15 11:24:00;;;;;;;;;;;17.80;99.90;;;;;;5022127;28;19925;-83
2022/09/15 11:26:29;;;;;;;;;;;17.80;99.90;;;;;;5028705;28;19925;-82
2022/09/15 11:28:58;;;;;;;;;;;17.80;99.90;;;;;;5027703;28;19933;-82
2022/09/15 11:31:27;;;;;;;;;;;17.90;99.90;;;;;;5026467;28;19963;-82
2022/09/15 11:33:57;;;;;;;;;;;17.80;99.90;;;;;;5030898;28;20624;-82
2022/09/15 11:36:30;;;;;;;;;;;17.90;99.90;;;;;;5015098;28;20004;-82
2022/09/15 11:39:00;;;;;;;;;;;17.90;99.90;;;;;;5029443;28;20471;-82
2022/09/15 11:41:30;;;;;;;;;;;17.90;99.90;;;;;;5019858;28;19925;-82
2022/09/15 11:44:08;;;;;;;;;;;17.90;99.90;;;;;;5027421;28;19925;-82
2022/09/15 11:46:57;;;;;;;;;;;17.90;99.90;;;;;;5012333;28;19960;-82
2022/09/15 11:49:27;;;;;;;;;;;17.90;99.90;;;;;;5017654;28;19929;-82
2022/09/15 11:51:58;;;;;;;;;;;18.00;99.90;;;;;;5032052;28;19933;-82
2022/09/15 11:54:28;;;;;;;;;;;18.00;99.90;;;;;;5025667;28;19925;-82
2022/09/15 11:56:56;;;;;;;;;;;18.00;99.90;;;;;;5021900;28;19952;-82
2022/09/15 11:59:26;;;;;;;;;;;18.00;99.90;;;;;;5025888;28;19975;-82
2022/09/15 12:01:57;;;;;;;;;;;18.10;99.90;;;;;;5023746;28;19947;-82
2022/09/15 12:04:28;;;;;;;;;;;18.10;99.90;;;;;;5027614;28;19933;-82
2022/09/15 12:06:57;;;;;;;;;;;18.10;99.90;;;;;;5020660;28;20383;-82
2022/09/15 12:09:23;;;;;;;;;;;18.10;99.90;;;;;;5026680;28;19929;-82
2022/09/15 12:11:52;;;;;;;;;;;18.10;99.90;;;;;;5026118;28;19925;-81
2022/09/15 12:14:22;;;;;;;;;;;18.10;99.90;;;;;;5028726;28;19955;-82
2022/09/15 12:16:50;;;;;;;;;;;18.20;99.90;;;;;;5030176;28;20355;-82
2022/09/15 12:19:25;;;;;;;;;;;18.20;99.90;;;;;;5020033;28;19925;-82
2022/09/15 12:21:56;;;;;;;;;;;18.20;99.90;;;;;;5026222;28;19957;-81
2022/09/15 12:24:25;;;;;;;;;;;18.20;99.90;;;;;;5029322;28;20371;-82
2022/09/15 12:26:52;;;;;;;;;;;18.30;99.90;;;;;;5030193;28;20298;-81
2022/09/15 12:29:39;;;;;;;;;;;18.30;99.90;;;;;;5015948;28;19995;-81
2022/09/15 12:32:23;;;;;;;;;;;18.30;99.90;;;;;;5012867;28;19961;-81
2022/09/15 12:34:58;;;;;;;;;;;18.30;99.90;;;;;;5029409;28;19932;-81
2022/09/15 12:37:26;;;;;;;;;;;18.30;99.90;;;;;;5022151;28;19959;-82
2022/09/15 12:39:53;;;;;;;;;;;18.30;99.90;;;;;;5027215;28;20447;-82
2022/09/15 12:42:20;;;;;;;;;;;18.30;99.90;;;;;;5026565;28;19925;-82
2022/09/15 12:44:50;;;;;;;;;;;18.30;99.90;;;;;;5030416;28;19933;-82
2022/09/15 12:47:34;;;;;;;;;;;18.30;99.90;;;;;;5031168;28;19971;-82
2022/09/15 12:50:21;;;;;;;;;;;18.30;99.90;;;;;;5029942;28;19948;-82
2022/09/15 12:52:50;;;;;;;;;;;18.30;99.90;;;;;;5012237;28;19956;-82
2022/09/15 12:55:19;;;;;;;;;;;18.30;99.90;;;;;;5027299;28;20020;-82
2022/09/15 12:57:51;;;;;;;;;;;18.40;99.90;;;;;;5030895;28;20062;-82
2022/09/15 13:00:38;;;;;;;;;;;18.30;99.90;;;;;;5023391;28;19979;-82
2022/09/15 13:03:08;;;;;;;;;;;18.30;99.90;;;;;;5024403;28;20292;-82
2022/09/15 13:05:52;;;;;;;;;;;18.30;99.90;;;;;;5024867;28;20589;-82
2022/09/15 13:08:37;;;;;;;;;;;18.30;99.90;;;;;;5022111;28;19964;-82
2022/09/15 13:11:06;;;;;;;;;;;18.30;99.90;;;;;;5030633;28;19940;-82
2022/09/15 13:13:35;;;;;;;;;;;18.30;99.90;;;;;;5024583;28;20351;-82
2022/09/15 13:16:02;;;;;;;;;;;18.30;99.90;;;;;;5031119;28;19961;-82
2022/09/15 13:18:30;;;;;;;;;;;18.20;99.90;;;;;;5005546;28;19925;-82
2022/09/15 13:21:03;;;;;;;;;;;18.20;99.90;;;;;;5031293;28;20445;-82
2022/09/15 13:23:34;;;;;;;;;;;18.20;99.90;;;;;;5031064;28;19950;-82
2022/09/15 13:26:01;;;;;;;;;;;18.20;99.90;;;;;;5018202;28;19940;-82
2022/09/15 13:28:28;;;;;;;;;;;18.20;99.90;;;;;;5027591;28;19956;-82
2022/09/15 13:31:13;;;;;;;;;;;18.20;99.90;;;;;;5031558;28;20372;-82
2022/09/15 13:33:51;;;;;;;;;;;18.20;99.90;;;;;;5031724;28;19971;-82
2022/09/15 13:36:25;;;;;;;;;;;18.20;99.90;;;;;;5030508;28;19925;-82
2022/09/15 13:39:05;;;;;;;;;;;18.10;99.90;;;;;;5024991;28;20346;-82
2022/09/15 13:41:43;;;;;;;;;;;18.20;99.90;;;;;;5029900;28;20215;-82
2022/09/15 13:44:20;;;;;;;;;;;18.10;99.90;;;;;;5032202;28;19951;-83
2022/09/15 13:46:52;;;;;;;;;;;18.10;99.90;;;;;;5030984;28;19925;-82
2022/09/15 13:49:25;;;;;;;;;;;18.10;99.90;;;;;;5030644;28;20023;-82
2022/09/15 13:51:58;;;;;;;;;;;18.10;99.90;;;;;;5027901;28;19933;-82
2022/09/15 13:54:25;;;;;;;;;;;18.00;99.90;;;;;;5033081;28;19929;-83
2022/09/15 13:56:52;;;;;;;;;;;18.00;99.90;;;;;;5018524;28;19925;-82
2022/09/15 13:59:20;;;;;;;;;;;18.10;99.90;;;;;;5039313;28;19940;-82
2022/09/15 14:01:47;;;;;;;;;;;18.00;99.90;;;;;;5034812;28;19937;-82
2022/09/15 14:04:16;;;;;;;;;;;18.00;99.90;;;;;;5023894;28;19929;-82
2022/09/15 14:06:44;;;;;;;;;;;18.00;99.90;;;;;;5031772;28;19956;-82
2022/09/15 14:09:15;;;;;;;;;;;18.00;99.90;;;;;;5018924;28;19925;-81
2022/09/15 14:11:43;;;;;;;;;;;18.00;99.90;;;;;;5020780;28;19925;-80
2022/09/15 14:14:29;;;;;;;;;;;17.90;99.90;;;;;;5024386;28;19956;-78
2022/09/15 14:16:56;;;;;;;;;;;17.90;99.90;;;;;;5025346;28;20378;-79
2022/09/15 14:19:28;;;;;;;;;;;17.90;99.90;;;;;;5023707;28;19929;-79
2022/09/15 14:21:54;;;;;;;;;;;17.90;99.90;;;;;;5022466;28;20512;-80
2022/09/15 14:24:27;;;;;;;;;;;17.80;99.90;;;;;;5029177;28;19925;-78
2022/09/15 14:26:53;;;;;;;;;;;17.80;99.90;;;;;;5024816;28;19960;-79
2022/09/15 14:29:23;;;;;;;;;;;17.80;99.90;;;;;;5020933;28;19936;-80
2022/09/15 14:31:50;;;;;;;;;;;17.80;99.90;;;;;;5021279;28;19971;-79
2022/09/15 14:34:18;;;;;;;;;;;17.80;99.90;;;;;;5008053;28;20294;-80
2022/09/15 14:36:45;;;;;;;;;;;17.80;99.90;;;;;;5027411;28;19929;-81
2022/09/15 14:39:20;;;;;;;;;;;17.70;99.90;;;;;;5021730;28;19932;-79
2022/09/15 14:41:49;;;;;;;;;;;17.70;99.90;;;;;;5003918;28;20366;-80